Time;durP1;ratioP1;P1;durP2;ratioP2;P2;SDS_P1;SDS_P2;PMS_P1;PMS_P2;Temp;Humidity;BMP_temperature;BMP_pressure;BME280_temperature;BME280_humidity;BME280_pressure;Samples;Min_cycle;Max_cycle;Signal;HPM_P1;HPM_P2
2024/03/29 00:00:44;;;;;;;5.87;5.57;;;9.90;11.30;;;;;;4909244;29;20668;-81
2024/03/29 00:03:10;;;;;;;5.53;5.33;;;9.90;11.60;;;;;;4905149;29;20424;-81
2024/03/29 00:05:36;;;;;;;5.70;5.40;;;10.00;10.70;;;;;;4932697;29;20435;-81
2024/03/29 00:08:03;;;;;;;5.53;5.30;;;10.00;10.90;;;;;;4907081;29;20420;-81
2024/03/29 00:10:31;;;;;;;5.60;5.40;;;10.10;10.50;;;;;;4928806;29;20448;-80
2024/03/29 00:12:56;;;;;;;6.07;5.57;;;10.20;10.50;;;;;;4928333;29;20424;-81
2024/03/29 00:15:22;;;;;;;5.40;5.20;;;10.40;10.20;;;;;;4935889;29;20459;-81
2024/03/29 00:17:47;;;;;;;5.10;4.90;;;10.30;9.80;;;;;;4909711;29;20183;-80
2024/03/29 00:20:13;;;;;;;4.90;4.50;;;10.30;9.90;;;;;;4938682;29;20536;-81
2024/03/29 00:22:39;;;;;;;4.63;4.43;;;10.40;10.40;;;;;;4927452;29;20176;-81
2024/03/29 00:25:05;;;;;;;4.83;4.70;;;10.30;10.10;;;;;;4903616;29;20879;-80
2024/03/29 00:27:32;;;;;;;5.13;4.93;;;10.40;9.90;;;;;;4921076;29;20236;-81
2024/03/29 00:29:58;;;;;;;5.00;4.73;;;10.30;10.10;;;;;;4908114;29;20451;-81
2024/03/29 00:32:24;;;;;;;5.63;5.27;;;10.40;10.10;;;;;;4920941;29;20448;-80
2024/03/29 00:34:51;;;;;;;5.53;5.20;;;10.50;10.50;;;;;;4912305;29;20192;-80
2024/03/29 00:37:17;;;;;;;5.20;4.87;;;10.60;9.80;;;;;;4929141;29;20862;-80
2024/03/29 00:39:43;;;;;;;6.30;5.80;;;10.70;10.40;;;;;;4914687;29;20495;-81
2024/03/29 00:42:09;;;;;;;5.63;5.33;;;10.90;10.20;;;;;;4921924;29;20437;-81
2024/03/29 00:44:37;;;;;;;5.23;5.03;;;10.80;9.40;;;;;;4903532;29;20208;-81
2024/03/29 00:47:03;;;;;;;5.13;4.93;;;10.70;9.70;;;;;;4911812;29;21068;-81
2024/03/29 00:49:30;;;;;;;5.57;5.27;;;10.70;9.80;;;;;;4922763;29;20474;-81
2024/03/29 00:51:56;;;;;;;5.50;5.30;;;10.70;10.50;;;;;;4922047;29;20931;-80
2024/03/29 00:54:23;;;;;;;5.90;5.70;;;10.90;10.00;;;;;;4936823;29;20207;-80
2024/03/29 00:56:49;;;;;;;6.13;5.80;;;11.00;9.80;;;;;;4920159;29;20217;-81
2024/03/29 00:59:15;;;;;;;5.70;5.50;;;11.00;10.30;;;;;;4903204;29;20480;-81
2024/03/29 01:01:40;;;;;;;5.80;5.50;;;10.90;9.60;;;;;;4905663;29;20440;-81
2024/03/29 01:04:06;;;;;;;5.80;5.60;;;10.90;9.60;;;;;;4922922;29;20199;-80
2024/03/29 01:06:31;;;;;;;5.63;5.33;;;10.70;9.70;;;;;;4914411;29;20195;-80
2024/03/29 01:08:57;;;;;;;6.00;5.80;;;10.80;9.70;;;;;;4914352;29;20208;-80
2024/03/29 01:11:23;;;;;;;5.97;5.77;;;10.80;9.80;;;;;;4923267;29;20184;-81
2024/03/29 01:13:48;;;;;;;5.47;5.27;;;10.60;10.00;;;;;;4913481;29;20192;-81
2024/03/29 01:16:15;;;;;;;6.37;6.07;;;10.50;10.00;;;;;;4926640;29;20183;-80
2024/03/29 01:18:43;;;;;;;5.90;5.70;;;10.50;10.40;;;;;;4922871;29;20536;-80
2024/03/29 01:21:09;;;;;;;5.27;5.07;;;10.50;10.20;;;;;;4934871;29;20435;-80
2024/03/29 01:23:34;;;;;;;6.10;5.53;;;10.40;10.30;;;;;;4925804;29;20416;-80
2024/03/29 01:26:00;;;;;;;5.20;5.00;;;10.50;10.30;;;;;;4925735;29;20640;-81
2024/03/29 01:28:26;;;;;;;5.20;5.00;;;10.50;10.10;;;;;;4915795;29;20188;-81
2024/03/29 01:30:52;;;;;;;5.43;5.20;;;10.40;9.90;;;;;;4924285;29;20239;-80
2024/03/29 01:33:18;;;;;;;6.30;6.00;;;10.40;10.20;;;;;;4906854;29;20252;-81
2024/03/29 01:35:44;;;;;;;6.00;5.80;;;10.50;10.20;;;;;;4923276;29;20464;-80
2024/03/29 01:38:09;;;;;;;5.13;4.93;;;10.50;10.40;;;;;;4914265;29;20204;-81
2024/03/29 01:40:35;;;;;;;5.23;4.93;;;10.50;10.20;;;;;;4906984;29;20630;-80
2024/03/29 01:43:01;;;;;;;6.20;5.90;;;10.50;10.00;;;;;;4927063;29;20212;-81
2024/03/29 01:45:27;;;;;;;4.90;4.70;;;10.60;10.00;;;;;;4941195;29;20191;-81
2024/03/29 01:47:54;;;;;;;5.87;5.57;;;10.70;10.00;;;;;;4925600;29;20432;-80
2024/03/29 01:50:20;;;;;;;4.87;4.67;;;10.60;10.00;;;;;;4940116;29;20463;-81
2024/03/29 01:52:46;;;;;;;5.10;4.80;;;10.70;10.20;;;;;;4905291;29;20432;-80
2024/03/29 01:55:11;;;;;;;5.20;4.90;;;10.60;10.20;;;;;;4912893;29;20940;-81
2024/03/29 01:57:37;;;;;;;4.90;4.70;;;10.60;10.00;;;;;;4905597;29;20195;-80
2024/03/29 02:00:05;;;;;;;4.90;4.70;;;10.60;10.20;;;;;;4929983;29;20215;-81
2024/03/29 02:02:32;;;;;;;4.53;4.43;;;10.50;9.80;;;;;;4920874;29;20947;-80
2024/03/29 02:04:59;;;;;;;5.70;5.50;;;10.60;10.10;;;;;;4910883;29;20480;-82
2024/03/29 02:07:25;;;;;;;5.30;4.90;;;10.50;10.10;;;;;;4933025;29;20416;-81
2024/03/29 02:09:50;;;;;;;6.13;5.83;;;10.50;9.90;;;;;;4911274;29;20952;-80
2024/03/29 02:12:16;;;;;;;5.37;5.17;;;10.50;10.20;;;;;;4937790;29;20416;-80
2024/03/29 02:14:42;;;;;;;5.33;5.03;;;10.50;9.90;;;;;;4921887;29;20188;-80
2024/03/29 02:17:08;;;;;;;4.90;4.70;;;10.60;9.90;;;;;;4930546;29;20393;-80
2024/03/29 02:19:34;;;;;;;5.37;5.17;;;10.50;10.00;;;;;;4905789;29;20483;-81
2024/03/29 02:22:01;;;;;;;5.00;4.80;;;10.50;10.00;;;;;;4920376;29;20416;-80
2024/03/29 02:24:27;;;;;;;5.17;4.97;;;10.50;10.10;;;;;;4917191;29;20552;-81
2024/03/29 02:26:56;;;;;;;5.00;4.80;;;10.40;10.00;;;;;;4928739;29;20519;-81
2024/03/29 02:29:21;;;;;;;5.33;5.13;;;10.30;10.00;;;;;;4913878;29;20449;-80
2024/03/29 02:31:47;;;;;;;5.10;4.90;;;10.30;10.00;;;;;;4923020;29;21000;-81
2024/03/29 02:34:13;;;;;;;5.00;4.80;;;10.30;10.30;;;;;;4923784;29;20432;-81
2024/03/29 02:36:38;;;;;;;5.20;5.00;;;10.30;10.10;;;;;;4914218;29;20210;-80
2024/03/29 02:39:04;;;;;;;4.93;4.73;;;10.40;10.00;;;;;;4911478;29;20215;-80
2024/03/29 02:41:30;;;;;;;4.53;4.40;;;10.40;9.90;;;;;;4916740;29;20199;-80
2024/03/29 02:43:56;;;;;;;4.47;4.37;;;10.40;9.70;;;;;;4924360;29;20183;-80
2024/03/29 02:46:21;;;;;;;4.67;4.47;;;10.50;9.70;;;;;;4924733;29;20207;-81
2024/03/29 02:48:47;;;;;;;5.27;5.07;;;10.50;9.70;;;;;;4916226;29;20451;-81
2024/03/29 02:51:12;;;;;;;5.23;5.03;;;10.50;9.70;;;;;;4926831;29;20240;-80
2024/03/29 02:53:38;;;;;;;4.77;4.57;;;10.50;9.70;;;;;;4921260;29;20916;-80
2024/03/29 02:56:07;;;;;;;5.17;4.97;;;10.50;9.90;;;;;;4927292;29;20218;-80
2024/03/29 02:58:34;;;;;;;4.67;4.57;;;10.50;10.00;;;;;;4918686;29;20213;-80
2024/03/29 03:01:07;;;;;;;5.40;5.20;;;10.50;9.80;;;;;;4929234;29;20421;-80
2024/03/29 03:03:32;;;;;;;5.20;4.80;;;10.50;9.80;;;;;;4906300;29;20424;-80
2024/03/29 03:05:58;;;;;;;6.63;6.30;;;10.60;9.80;;;;;;4911322;29;20573;-80
2024/03/29 03:11:07;;;;;;;5.13;5.03;;;10.70;10.00;;;;;;4923063;29;20195;-81
2024/03/29 03:13:33;;;;;;;5.07;4.97;;;10.80;9.60;;;;;;4908313;29;20823;-81
2024/03/29 03:15:58;;;;;;;5.43;5.23;;;10.80;9.40;;;;;;4925700;29;20180;-81
2024/03/29 03:18:24;;;;;;;4.53;4.43;;;10.70;9.80;;;;;;4925629;29;20213;-82
2024/03/29 03:20:59;;;;;;;4.40;4.30;;;10.60;9.70;;;;;;4920958;29;20573;-82
2024/03/29 03:23:25;;;;;;;4.80;4.70;;;10.60;9.60;;;;;;4932151;29;20184;-82
2024/03/29 03:26:03;;;;;;;5.33;5.13;;;10.60;9.90;;;;;;4923400;29;20463;-81
2024/03/29 03:28:29;;;;;;;4.63;4.53;;;10.60;10.00;;;;;;4938562;29;20485;-79
2024/03/29 03:30:54;;;;;;;4.47;4.37;;;10.60;9.70;;;;;;4916057;29;20437;-80
2024/03/29 03:33:20;;;;;;;4.93;4.73;;;10.70;9.70;;;;;;4902260;29;20181;-80
2024/03/29 03:35:46;;;;;;;5.67;5.47;;;10.70;9.90;;;;;;4901878;29;20303;-80
2024/03/29 03:38:12;;;;;;;5.10;5.00;;;10.60;10.10;;;;;;4926632;29;20416;-80
2024/03/29 03:40:38;;;;;;;4.90;4.70;;;10.70;9.40;;;;;;4926662;29;20201;-79
2024/03/29 03:43:08;;;;;;;5.10;5.00;;;10.60;9.60;;;;;;4917583;29;20177;-80
2024/03/29 03:45:39;;;;;;;5.00;4.80;;;10.60;9.80;;;;;;4912222;29;20438;-80
2024/03/29 03:48:05;;;;;;;5.23;5.03;;;10.60;9.70;;;;;;4914585;29;20511;-80
2024/03/29 03:50:31;;;;;;;4.70;4.60;;;10.60;9.70;;;;;;4938552;29;20468;-81
2024/03/29 03:52:57;;;;;;;5.23;5.03;;;10.70;9.70;;;;;;4919420;29;20417;-81
2024/03/29 03:55:22;;;;;;;4.80;4.60;;;10.70;9.80;;;;;;4905288;29;20181;-81
2024/03/29 03:57:48;;;;;;;5.00;4.80;;;10.70;9.90;;;;;;4902553;29;20211;-82
2024/03/29 04:00:14;;;;;;;4.83;4.73;;;10.70;9.50;;;;;;4918251;29;20227;-80
2024/03/29 04:02:39;;;;;;;5.57;5.40;;;11.00;10.30;;;;;;4918688;29;20195;-80
2024/03/29 04:05:06;;;;;;;4.87;4.77;;;11.10;9.20;;;;;;4923748;29;20295;-81
2024/03/29 04:07:32;;;;;;;5.00;4.90;;;11.10;8.60;;;;;;4905486;29;20244;-81
2024/03/29 04:09:57;;;;;;;5.43;5.23;;;11.20;8.60;;;;;;4915147;29;20471;-82
2024/03/29 04:12:23;;;;;;;5.10;4.97;;;11.30;8.90;;;;;;4930611;29;20199;-81
2024/03/29 04:14:48;;;;;;;4.83;4.73;;;11.50;9.00;;;;;;4909531;29;20198;-81
2024/03/29 04:17:14;;;;;;;5.30;5.20;;;11.60;8.60;;;;;;4939272;29;20261;-81
2024/03/29 04:19:39;;;;;;;5.50;5.30;;;11.80;8.30;;;;;;4935527;29;20252;-80
2024/03/29 04:22:05;;;;;;;5.80;5.60;;;11.90;8.10;;;;;;4925886;29;20195;-80
2024/03/29 04:24:31;;;;;;;5.33;5.13;;;12.10;8.20;;;;;;4934782;29;20219;-81
2024/03/29 04:26:56;;;;;;;5.80;5.60;;;12.10;8.20;;;;;;4907832;29;20638;-80
2024/03/29 04:29:22;;;;;;;5.37;5.17;;;12.20;8.30;;;;;;4919024;29;20216;-80
2024/03/29 04:31:48;;;;;;;5.70;5.50;;;12.20;7.80;;;;;;4903161;29;20184;-81
2024/03/29 04:34:13;;;;;;;5.77;5.47;;;12.10;7.80;;;;;;4912475;29;20311;-80
2024/03/29 04:36:39;;;;;;;5.50;5.30;;;12.00;8.00;;;;;;4926049;29;20181;-81
2024/03/29 04:39:04;;;;;;;4.90;4.80;;;12.00;8.50;;;;;;4918131;29;20211;-81
2024/03/29 04:41:34;;;;;;;5.50;5.30;;;12.00;8.50;;;;;;4934739;29;20179;-81
2024/03/29 04:44:00;;;;;;;5.13;5.00;;;12.00;9.40;;;;;;4907157;29;20280;-81
2024/03/29 04:46:26;;;;;;;5.40;5.20;;;12.00;8.70;;;;;;4918470;29;20428;-81
2024/03/29 04:48:51;;;;;;;5.50;5.30;;;12.10;8.80;;;;;;4908180;29;20825;-82
2024/03/29 04:51:17;;;;;;;5.17;4.97;;;12.10;8.40;;;;;;4917851;29;20193;-82
2024/03/29 04:53:42;;;;;;;4.87;4.77;;;12.00;8.70;;;;;;4905143;29;20184;-80
2024/03/29 04:56:08;;;;;;;5.23;5.03;;;12.10;9.60;;;;;;4920781;29;20651;-80
2024/03/29 04:58:33;;;;;;;5.30;5.10;;;12.00;9.80;;;;;;4908321;29;20568;-80
2024/03/29 05:00:59;;;;;;;5.00;4.90;;;11.90;9.10;;;;;;4902749;29;20799;-80
2024/03/29 05:03:24;;;;;;;4.73;4.63;;;11.90;9.60;;;;;;4919258;29;20173;-81
2024/03/29 05:05:51;;;;;;;5.20;5.00;;;12.10;9.80;;;;;;4907559;29;20180;-81
2024/03/29 05:08:18;;;;;;;5.20;5.00;;;12.10;7.80;;;;;;4913899;29;20534;-81
2024/03/29 05:10:44;;;;;;;5.03;4.93;;;12.00;7.60;;;;;;4902211;29;20421;-81
2024/03/29 05:13:10;;;;;;;5.43;5.23;;;11.90;7.60;;;;;;4914075;29;20943;-81
2024/03/29 05:15:36;;;;;;;5.33;5.23;;;12.00;7.30;;;;;;4920692;29;20207;-81
2024/03/29 05:18:02;;;;;;;5.13;4.93;;;12.00;6.90;;;;;;4907197;29;20177;-82
2024/03/29 05:20:27;;;;;;;4.77;4.63;;;12.00;6.80;;;;;;4918968;29;20444;-82
2024/03/29 05:22:53;;;;;;;5.50;5.20;;;12.00;7.00;;;;;;4903563;29;20671;-81
2024/03/29 05:25:18;;;;;;;4.60;4.50;;;12.00;6.90;;;;;;4905937;29;20664;-82
2024/03/29 05:27:44;;;;;;;5.00;4.90;;;12.00;6.40;;;;;;4910573;29;20193;-82
2024/03/29 05:30:10;;;;;;;4.77;4.67;;;11.90;6.70;;;;;;4912475;29;20221;-81
2024/03/29 05:32:36;;;;;;;4.80;4.70;;;11.70;6.90;;;;;;4909307;29;20186;-82
2024/03/29 05:35:01;;;;;;;4.37;4.27;;;11.60;8.00;;;;;;4902600;29;20232;-81
2024/03/29 05:37:27;;;;;;;4.93;4.80;;;11.60;7.40;;;;;;4902212;29;20412;-82
2024/03/29 05:39:59;;;;;;;5.23;4.90;;;11.60;7.40;;;;;;4918170;29;20239;-81
2024/03/29 05:42:29;;;;;;;4.70;4.60;;;11.50;7.30;;;;;;4919627;29;20185;-81
2024/03/29 05:44:55;;;;;;;4.97;4.87;;;11.40;7.40;;;;;;4920817;29;20427;-80
2024/03/29 05:47:21;;;;;;;4.63;4.47;;;11.30;7.70;;;;;;4922480;29;20949;-83
2024/03/29 05:49:47;;;;;;;4.60;4.40;;;11.20;7.90;;;;;;4910711;29;20212;-82
2024/03/29 05:52:13;;;;;;;4.60;4.50;;;11.30;8.10;;;;;;4912081;29;20235;-81
2024/03/29 05:54:40;;;;;;;4.73;4.63;;;11.30;8.00;;;;;;4937396;29;20417;-80
2024/03/29 05:57:08;;;;;;;4.73;4.60;;;11.20;8.10;;;;;;4907370;29;20417;-80
2024/03/29 05:59:35;;;;;;;4.70;4.30;;;11.20;8.10;;;;;;4915590;29;20454;-81
2024/03/29 06:02:01;;;;;;;5.07;4.87;;;11.20;8.40;;;;;;4941926;29;20428;-81
2024/03/29 06:04:32;;;;;;;5.07;4.87;;;11.10;8.40;;;;;;4911775;29;20453;-81
2024/03/29 06:07:01;;;;;;;4.67;4.50;;;11.10;8.20;;;;;;4926336;29;20978;-81
2024/03/29 06:09:27;;;;;;;4.93;4.60;;;11.10;8.20;;;;;;4923093;29;20465;-81
2024/03/29 06:11:56;;;;;;;4.67;4.50;;;11.10;8.20;;;;;;4926243;29;20847;-80
2024/03/29 06:17:22;;;;;;;4.23;4.13;;;11.10;8.60;;;;;;4926237;29;20507;-81
2024/03/29 06:19:49;;;;;;;4.73;4.53;;;11.20;8.40;;;;;;4905502;29;20679;-81
2024/03/29 06:22:15;;;;;;;4.03;3.93;;;11.20;8.60;;;;;;4905104;29;20433;-80
2024/03/29 06:24:43;;;;;;;4.10;4.00;;;11.20;7.70;;;;;;4944605;29;20431;-80
2024/03/29 06:27:09;;;;;;;4.40;4.17;;;11.20;7.80;;;;;;4947106;29;20424;-80
2024/03/29 06:29:34;;;;;;;4.27;4.17;;;11.30;7.40;;;;;;4929602;29;20520;-80
2024/03/29 06:32:00;;;;;;;4.80;4.63;;;11.30;7.20;;;;;;4942144;29;20267;-81
2024/03/29 06:34:25;;;;;;;4.17;4.07;;;11.40;7.20;;;;;;4940881;29;20176;-81
2024/03/29 06:36:51;;;;;;;3.60;3.40;;;11.40;7.30;;;;;;4940801;29;20275;-81
2024/03/29 06:39:17;;;;;;;3.93;3.73;;;11.50;7.30;;;;;;4908763;29;20307;-79
2024/03/29 06:41:42;;;;;;;4.10;4.00;;;11.50;7.30;;;;;;4904190;29;20193;-81
2024/03/29 06:44:08;;;;;;;4.50;4.30;;;11.60;7.20;;;;;;4904402;29;20497;-81
2024/03/29 06:46:34;;;;;;;4.07;3.97;;;11.60;7.00;;;;;;4930662;29;20195;-80
2024/03/29 06:49:00;;;;;;;4.00;3.90;;;11.60;6.90;;;;;;4939399;29;20222;-82
2024/03/29 06:51:25;;;;;;;4.63;4.43;;;11.70;6.60;;;;;;4924812;29;20425;-81
2024/03/29 06:53:51;;;;;;;4.03;3.90;;;11.70;6.30;;;;;;4931768;29;20428;-81
2024/03/29 06:56:17;;;;;;;4.90;4.60;;;11.70;6.50;;;;;;4938180;29;20236;-81
2024/03/29 06:58:42;;;;;;;3.90;3.80;;;11.70;6.60;;;;;;4920892;29;20303;-81
2024/03/29 07:01:11;;;;;;;4.00;3.90;;;11.80;6.70;;;;;;4921916;29;20192;-82
2024/03/29 07:03:37;;;;;;;4.00;3.90;;;11.80;6.50;;;;;;4904969;29;20188;-81
2024/03/29 07:06:03;;;;;;;4.57;4.37;;;11.80;6.80;;;;;;4904253;29;20488;-81
2024/03/29 07:08:29;;;;;;;4.30;4.20;;;11.90;7.20;;;;;;4903960;29;20217;-82
2024/03/29 07:10:59;;;;;;;4.07;3.97;;;11.90;7.20;;;;;;4920641;29;20531;-82
2024/03/29 07:13:24;;;;;;;3.70;3.60;;;12.00;6.80;;;;;;4904141;29;20188;-82
2024/03/29 07:15:53;;;;;;;4.30;4.20;;;12.10;7.00;;;;;;4940219;29;20419;-82
2024/03/29 07:18:19;;;;;;;4.33;4.23;;;12.00;7.00;;;;;;4938913;29;20184;-81
2024/03/29 07:20:44;;;;;;;4.57;4.40;;;12.10;7.10;;;;;;4922775;29;20486;-85
2024/03/29 07:23:14;;;;;;;5.03;4.83;;;12.10;6.90;;;;;;4906299;29;20284;-83
2024/03/29 07:26:34;;;;;;;4.43;4.23;;;12.20;7.10;;;;;;4920809;29;20197;-85
2024/03/29 07:29:19;;;;;;;4.23;3.93;;;12.20;7.30;;;;;;4910139;29;20476;-85
2024/03/29 07:31:45;;;;;;;4.50;4.33;;;12.30;7.40;;;;;;4921870;29;20504;-82
2024/03/29 07:34:10;;;;;;;7.40;5.03;;;12.40;8.90;;;;;;4906310;29;20413;-83
2024/03/29 07:36:37;;;;;;;5.47;5.17;;;12.40;11.00;;;;;;4903808;29;20181;-82
2024/03/29 07:39:04;;;;;;;4.50;4.30;;;12.30;13.20;;;;;;4903754;29;20204;-83
2024/03/29 07:41:33;;;;;;;5.03;4.63;;;12.30;14.20;;;;;;4910937;29;20425;-84
2024/03/29 07:44:03;;;;;;;4.73;4.53;;;12.20;16.40;;;;;;4907838;29;20424;-82
2024/03/29 07:46:33;;;;;;;4.97;4.67;;;12.20;16.40;;;;;;4931777;29;20767;-83
2024/03/29 07:48:59;;;;;;;5.07;4.87;;;12.30;18.00;;;;;;4924275;29;21011;-83
2024/03/29 07:51:25;;;;;;;4.57;4.17;;;12.40;19.10;;;;;;4907001;29;20508;-81
2024/03/29 07:53:51;;;;;;;4.90;4.70;;;12.20;16.40;;;;;;4907178;29;21000;-79
2024/03/29 07:56:16;;;;;;;4.63;4.43;;;12.10;17.30;;;;;;4921268;29;20249;-81
2024/03/29 07:58:43;;;;;;;4.77;4.57;;;11.70;17.30;;;;;;4940265;29;20208;-81
2024/03/29 08:01:08;;;;;;;4.90;4.70;;;11.40;20.80;;;;;;4911051;29;20191;-82
2024/03/29 08:03:34;;;;;;;4.47;4.17;;;11.30;21.20;;;;;;4904809;29;20428;-80
2024/03/29 08:06:04;;;;;;;5.37;4.90;;;11.20;22.10;;;;;;4920580;29;20180;-81
2024/03/29 08:08:30;;;;;;;4.17;3.97;;;11.10;23.20;;;;;;4905310;29;20688;-81
2024/03/29 08:10:56;;;;;;;4.90;4.70;;;10.90;23.40;;;;;;4908225;29;20514;-82
2024/03/29 08:13:24;;;;;;;4.50;4.30;;;10.80;23.10;;;;;;4911438;29;20598;-81
2024/03/29 08:15:56;;;;;;;4.73;4.53;;;10.70;23.70;;;;;;4911241;29;20656;-80
2024/03/29 08:18:21;;;;;;;4.80;4.60;;;10.70;23.60;;;;;;4936193;29;20427;-80
2024/03/29 08:20:47;;;;;;;4.60;4.30;;;10.60;23.60;;;;;;4904675;29;20441;-80
2024/03/29 08:23:12;;;;;;;5.70;5.40;;;10.60;23.70;;;;;;4925999;29;20185;-80
2024/03/29 08:25:38;;;;;;;5.23;4.93;;;10.60;25.30;;;;;;4927917;29;20211;-82
2024/03/29 08:28:04;;;;;;;5.57;5.27;;;10.50;24.60;;;;;;4905554;29;20190;-81
2024/03/29 08:30:34;;;;;;;5.00;4.70;;;10.50;24.20;;;;;;4913406;29;20291;-84
2024/03/29 08:33:02;;;;;;;4.47;4.27;;;10.50;24.70;;;;;;4919346;29;21102;-82
2024/03/29 08:35:32;;;;;;;5.70;5.40;;;10.40;25.20;;;;;;4919191;29;20415;-81
2024/03/29 08:37:57;;;;;;;4.53;4.43;;;10.50;25.80;;;;;;4945388;29;20423;-80
2024/03/29 08:40:24;;;;;;;4.73;4.50;;;10.50;25.90;;;;;;4947010;29;20482;-81
2024/03/29 08:42:50;;;;;;;5.27;5.07;;;10.50;27.60;;;;;;4924223;29;20188;-81
2024/03/29 08:45:15;;;;;;;4.83;4.53;;;10.50;28.40;;;;;;4939243;29;20509;-81
2024/03/29 08:47:41;;;;;;;5.27;5.07;;;10.60;29.20;;;;;;4924016;29;20840;-81
2024/03/29 08:50:06;;;;;;;5.20;5.00;;;10.60;29.00;;;;;;4924785;29;20298;-81
2024/03/29 08:52:32;;;;;;;5.40;5.13;;;10.70;29.20;;;;;;4926844;29;20180;-81
2024/03/29 08:54:58;;;;;;;5.57;5.27;;;10.80;29.50;;;;;;4927201;29;20187;-80
2024/03/29 08:57:23;;;;;;;5.10;4.90;;;11.00;30.20;;;;;;4942254;29;20266;-80
2024/03/29 08:59:49;;;;;;;5.87;5.57;;;11.10;30.60;;;;;;4910618;29;20204;-80
2024/03/29 09:02:14;;;;;;;5.97;5.60;;;11.10;30.70;;;;;;4941427;29;20255;-80
2024/03/29 09:04:40;;;;;;;5.20;5.00;;;11.20;31.00;;;;;;4921002;29;20283;-81
2024/03/29 09:07:05;;;;;;;5.93;5.60;;;11.30;31.10;;;;;;4903237;29;20311;-80
2024/03/29 09:09:34;;;;;;;5.90;5.67;;;11.40;31.40;;;;;;4920206;29;20719;-81
2024/03/29 09:11:59;;;;;;;6.00;5.70;;;11.60;31.30;;;;;;4913023;29;20215;-81
2024/03/29 09:14:26;;;;;;;6.30;6.00;;;11.70;30.60;;;;;;4921762;29;20955;-82
2024/03/29 09:16:52;;;;;;;6.10;5.87;;;11.80;30.80;;;;;;4923981;29;20192;-81
2024/03/29 09:19:18;;;;;;;7.17;6.73;;;11.90;31.10;;;;;;4919937;29;20460;-81
2024/03/29 09:21:43;;;;;;;11.70;10.97;;;12.00;31.20;;;;;;4925873;29;20184;-82
2024/03/29 09:24:09;;;;;;;36.70;34.23;;;12.10;30.80;;;;;;4943275;29;20191;-82
2024/03/29 09:26:34;;;;;;;8.90;8.40;;;12.20;30.80;;;;;;4925564;29;20191;-82
2024/03/29 09:29:00;;;;;;;6.77;6.47;;;12.20;30.80;;;;;;4925078;29;20218;-82
2024/03/29 09:31:27;;;;;;;7.50;7.10;;;12.20;31.90;;;;;;4947629;29;20185;-80
2024/03/29 09:33:53;;;;;;;6.80;6.50;;;12.10;32.40;;;;;;4944755;29;20213;-81
2024/03/29 09:36:23;;;;;;;6.63;6.33;;;12.00;33.20;;;;;;4920625;29;20421;-81
2024/03/29 09:38:50;;;;;;;6.37;6.07;;;11.80;33.20;;;;;;4934484;29;20443;-81
2024/03/29 09:41:19;;;;;;;6.50;6.30;;;11.70;34.10;;;;;;4926952;29;20991;-82
2024/03/29 09:43:46;;;;;;;6.63;6.43;;;11.70;34.90;;;;;;4944923;29;20420;-82
2024/03/29 09:46:13;;;;;;;8.17;7.77;;;11.70;36.10;;;;;;4923521;29;20961;-82
2024/03/29 09:48:41;;;;;;;7.47;7.17;;;11.80;36.40;;;;;;4924570;29;20464;-81
2024/03/29 09:51:07;;;;;;;7.07;6.77;;;12.00;36.30;;;;;;4910192;29;20421;-81
2024/03/29 09:53:36;;;;;;;7.40;7.00;;;12.10;35.20;;;;;;4926182;29;20429;-81
2024/03/29 09:56:04;;;;;;;6.83;6.60;;;12.20;34.90;;;;;;4928584;29;20642;-81
2024/03/29 09:58:30;;;;;;;6.83;6.43;;;12.20;34.80;;;;;;4927572;29;20431;-81
2024/03/29 10:00:56;;;;;;;7.10;6.70;;;12.30;33.70;;;;;;4927355;29;20411;-83
2024/03/29 10:03:31;;;;;;;8.00;7.60;;;12.40;33.60;;;;;;4919955;29;20559;-81
2024/03/29 10:05:58;;;;;;;6.77;6.47;;;12.60;33.20;;;;;;4924352;29;20451;-82
2024/03/29 10:08:32;;;;;;;6.63;6.33;;;12.60;32.50;;;;;;4913090;29;21109;-81
2024/03/29 10:10:57;;;;;;;7.43;7.03;;;12.70;32.20;;;;;;4941101;29;20448;-81
2024/03/29 10:13:23;;;;;;;6.67;6.43;;;12.70;32.60;;;;;;4913031;29;20432;-82
2024/03/29 10:15:55;;;;;;;6.90;6.50;;;12.70;32.80;;;;;;4907566;29;20439;-81
2024/03/29 10:18:27;;;;;;;8.97;8.57;;;12.70;33.90;;;;;;4907787;29;20243;-80
2024/03/29 10:21:01;;;;;;;7.83;7.10;;;12.60;34.40;;;;;;4908709;29;20433;-82
2024/03/29 10:23:27;;;;;;;7.23;6.83;;;12.70;34.50;;;;;;4906985;29;20428;-81
2024/03/29 10:25:53;;;;;;;6.97;6.70;;;12.80;34.00;;;;;;4920692;29;20421;-81
2024/03/29 10:28:19;;;;;;;14.87;14.07;;;12.70;33.90;;;;;;4924812;29;20551;-81
2024/03/29 10:30:45;;;;;;;7.07;6.70;;;12.70;33.90;;;;;;4922096;29;20232;-81
2024/03/29 10:33:11;;;;;;;11.27;10.67;;;12.60;33.50;;;;;;4918796;29;20941;-83
2024/03/29 10:35:49;;;;;;;8.00;7.47;;;12.60;33.80;;;;;;4913470;29;20180;-81
2024/03/29 10:38:14;;;;;;;7.00;6.70;;;12.60;32.50;;;;;;4928482;29;20423;-81
2024/03/29 10:41:02;;;;;;;5.97;5.77;;;12.70;31.60;;;;;;4937444;29;20983;-82
2024/03/29 10:43:31;;;;;;;8.20;7.80;;;12.90;31.20;;;;;;4925341;29;20177;-85
2024/03/29 10:45:59;;;;;;;6.23;5.93;;;12.80;31.50;;;;;;4936832;29;20993;-82
2024/03/29 10:48:27;;;;;;;7.00;6.70;;;12.80;30.80;;;;;;4913037;29;20452;-82
2024/03/29 10:50:54;;;;;;;7.73;7.33;;;12.80;31.40;;;;;;4912648;29;20424;-80
2024/03/29 10:53:22;;;;;;;10.83;10.17;;;12.80;30.80;;;;;;4910945;29;20432;-81
2024/03/29 10:55:53;;;;;;;7.90;7.50;;;12.90;31.60;;;;;;4912625;29;20417;-81
2024/03/29 10:58:24;;;;;;;6.17;5.80;;;12.90;31.70;;;;;;4926692;29;20581;-82
2024/03/29 11:00:56;;;;;;;7.40;6.97;;;12.90;30.20;;;;;;4914915;29;20864;-82
2024/03/29 11:03:53;;;;;;;10.33;9.73;;;12.80;31.50;;;;;;4911529;29;20491;-82
2024/03/29 11:06:23;;;;;;;8.27;7.77;;;12.90;31.60;;;;;;4940115;29;20428;-81
2024/03/29 11:08:52;;;;;;;7.83;7.43;;;13.00;31.50;;;;;;4940894;29;20460;-84
2024/03/29 11:11:18;;;;;;;7.50;7.10;;;13.00;30.30;;;;;;4924427;29;20431;-82
2024/03/29 11:14:05;;;;;;;7.50;7.10;;;13.10;30.60;;;;;;4922443;29;20773;-83
2024/03/29 11:16:32;;;;;;;7.97;7.53;;;13.00;30.50;;;;;;4904446;29;20480;-80
2024/03/29 11:18:59;;;;;;;7.20;6.90;;;13.10;31.60;;;;;;4917192;29;20464;-83
2024/03/29 11:21:28;;;;;;;8.13;7.43;;;13.20;31.00;;;;;;4926441;29;20420;-82
2024/03/29 11:23:55;;;;;;;7.70;7.20;;;13.30;30.10;;;;;;4912767;29;20424;-84
2024/03/29 11:26:21;;;;;;;7.73;7.40;;;13.30;30.30;;;;;;4934124;29;20695;-82
2024/03/29 11:28:51;;;;;;;8.03;7.63;;;13.40;30.00;;;;;;4922948;29;20516;-83
2024/03/29 11:31:17;;;;;;;6.67;6.37;;;13.40;30.20;;;;;;4924853;29;20187;-81
2024/03/29 11:33:44;;;;;;;7.07;6.77;;;13.50;30.00;;;;;;4938878;29;20412;-83
2024/03/29 11:36:43;;;;;;;6.60;6.20;;;13.50;29.90;;;;;;4921432;29;20786;-82
2024/03/29 11:39:20;;;;;;;6.73;6.33;;;13.50;30.00;;;;;;4924636;29;20489;-80
2024/03/29 11:41:51;;;;;;;7.97;7.50;;;13.60;29.90;;;;;;4915402;29;20819;-82
2024/03/29 11:44:16;;;;;;;6.97;6.67;;;13.60;30.10;;;;;;4902834;29;20405;-80
2024/03/29 11:46:47;;;;;;;6.90;6.57;;;13.60;30.50;;;;;;4901274;29;20432;-81
2024/03/29 11:49:13;;;;;;;7.33;6.80;;;13.50;30.90;;;;;;4902061;29;20510;-81
2024/03/29 11:51:41;;;;;;;7.63;7.03;;;13.50;29.80;;;;;;4927284;29;20428;-80
2024/03/29 11:54:07;;;;;;;7.40;7.00;;;13.40;29.40;;;;;;4902565;29;20865;-81
2024/03/29 11:56:32;;;;;;;7.47;7.17;;;13.40;28.80;;;;;;4902559;29;20869;-81
2024/03/29 11:59:00;;;;;;;8.60;8.10;;;13.30;29.10;;;;;;4910871;29;20212;-80
2024/03/29 12:01:26;;;;;;;8.63;8.20;;;13.40;29.20;;;;;;4917980;29;20878;-80
2024/03/29 12:03:52;;;;;;;7.93;7.53;;;13.50;28.90;;;;;;4916873;29;20425;-81
2024/03/29 12:06:19;;;;;;;8.17;7.67;;;13.60;28.20;;;;;;4918358;29;20500;-80
2024/03/29 12:08:44;;;;;;;7.37;7.00;;;13.70;27.80;;;;;;4908863;29;20221;-79
2024/03/29 12:11:10;;;;;;;7.53;7.13;;;13.70;27.40;;;;;;4917101;29;20420;-80
2024/03/29 12:13:36;;;;;;;7.50;7.00;;;13.70;27.10;;;;;;4917186;29;20181;-80
2024/03/29 12:16:03;;;;;;;7.90;7.50;;;13.80;27.30;;;;;;4916865;29;20716;-78
2024/03/29 12:18:31;;;;;;;8.00;7.50;;;13.90;28.00;;;;;;4907553;29;20433;-79
2024/03/29 12:20:57;;;;;;;6.90;6.70;;;13.90;27.70;;;;;;4910127;29;20437;-80
2024/03/29 12:23:23;;;;;;;7.27;6.93;;;13.90;27.80;;;;;;4922875;29;20424;-80
2024/03/29 12:25:51;;;;;;;7.50;7.20;;;13.90;28.00;;;;;;4917883;29;20431;-79
2024/03/29 12:28:17;;;;;;;7.37;7.07;;;13.90;28.60;;;;;;4924351;29;20641;-80
2024/03/29 12:30:45;;;;;;;8.57;7.97;;;14.00;28.30;;;;;;4908382;29;20455;-80
2024/03/29 12:33:21;;;;;;;7.17;6.83;;;14.00;29.10;;;;;;4913586;29;20870;-79
2024/03/29 12:35:49;;;;;;;7.30;7.00;;;13.90;28.30;;;;;;4911212;29;20456;-79
2024/03/29 12:38:18;;;;;;;7.57;7.17;;;13.90;28.80;;;;;;4916692;29;20457;-78
2024/03/29 12:40:47;;;;;;;7.80;7.30;;;13.90;28.10;;;;;;4907689;29;20841;-79
2024/03/29 12:43:13;;;;;;;7.50;7.20;;;14.00;27.50;;;;;;4909194;29;20438;-80
2024/03/29 12:45:40;;;;;;;7.73;7.43;;;14.00;27.40;;;;;;4917459;29;20479;-81
2024/03/29 12:48:17;;;;;;;6.53;6.23;;;14.10;27.80;;;;;;4908889;29;20423;-79
2024/03/29 12:50:44;;;;;;;7.00;6.67;;;14.10;26.70;;;;;;4908797;29;20450;-80
2024/03/29 12:53:14;;;;;;;6.60;6.33;;;14.10;27.10;;;;;;4902194;29;20421;-80
2024/03/29 12:55:44;;;;;;;7.37;6.87;;;14.20;26.30;;;;;;4919283;29;20957;-80